Time;durP1;ratioP1;P1;durP2;ratioP2;P2;SDS_P1;SDS_P2;PMS_P1;PMS_P2;Temp;Humidity;BMP_temperature;BMP_pressure;BME280_temperature;BME280_humidity;BME280_pressure;Samples;Min_cycle;Max_cycle;Signal;HPM_P1;HPM_P2
2023/02/21 02:15:05;;;;;;;2.28;1.50;;;;;;;8.28;46.60;100264.47;5048230;28;20059;-41
2023/02/21 02:18:18;;;;;;;2.53;1.42;;;;;;;8.41;45.99;100273.31;5049394;28;20033;-40
2023/02/21 02:20:47;;;;;;;4.88;2.10;;;;;;;8.39;45.40;100275.31;5032037;28;20490;-40
2023/02/21 02:23:15;;;;;;;;;;;;;;;8.43;45.58;100258.00;5049873;28;20032;-39
2023/02/21 02:25:59;;;;;;;;;;;;;;;8.34;46.43;100259.19;5050246;28;19999;-42
2023/02/21 02:29:00;;;;;;;4.57;2.03;;;;;;;8.20;45.94;100245.00;5049156;28;19956;-41
2023/02/21 02:31:48;;;;;;;2.50;1.30;;;;;;;8.16;46.64;100249.09;5049477;28;20044;-41
2023/02/21 02:34:33;;;;;;;5.07;1.70;;;;;;;8.31;46.82;100261.41;5049480;28;20095;-42
2023/02/21 02:37:09;;;;;;;2.30;1.30;;;;;;;8.14;46.48;100237.03;5048966;28;20068;-41
2023/02/21 02:39:46;;;;;;;2.95;1.40;;;;;;;8.22;46.91;100256.25;5049045;28;20110;-41
2023/02/21 02:42:23;;;;;;;2.72;1.20;;;;;;;8.27;47.31;100258.31;5049061;28;20061;-41
2023/02/21 02:45:30;;;;;;;3.43;1.70;;;;;;;8.28;47.21;100244.03;5049068;28;20112;-39
2023/02/21 02:48:19;;;;;;;3.38;1.63;;;;;;;8.30;46.79;100243.84;5048206;28;20091;-37
2023/02/21 02:50:47;;;;;;;4.22;1.80;;;;;;;8.14;47.79;100226.41;5049036;28;20063;-38
2023/02/21 02:53:16;;;;;;;4.00;1.60;;;;;;;8.23;47.01;100247.28;5048687;28;20103;-43
2023/02/21 02:55:55;;;;;;;4.38;1.70;;;;;;;8.21;46.98;100222.75;5048747;28;20159;-42
2023/02/21 02:58:24;;;;;;;3.65;1.58;;;;;;;8.32;46.86;100229.31;5048724;28;20029;-40
2023/02/21 03:01:08;;;;;;;4.50;1.52;;;;;;;8.25;46.36;100233.78;5048859;28;20025;-41
2023/02/21 03:03:49;;;;;;;4.43;1.80;;;;;;;8.20;47.65;100236.22;5046979;28;20425;-42
2023/02/21 03:06:38;;;;;;;3.10;1.83;;;;;;;8.03;47.50;100204.72;5048577;28;20780;-38
2023/02/21 03:09:22;;;;;;;3.47;2.50;;;;;;;7.92;48.32;100223.03;5048418;28;20725;-41
2023/02/21 03:12:14;;;;;;;5.55;2.25;;;;;;;7.72;49.61;100212.31;5048236;28;20551;-42
2023/02/21 03:14:55;;;;;;;2.85;1.52;;;;;;;7.03;50.46;100192.72;5049062;28;20036;-42
2023/02/21 03:17:23;;;;;;;4.50;1.95;;;;;;;7.28;49.58;100206.34;5048132;28;20783;-42
2023/02/21 03:19:51;;;;;;;7.80;2.03;;;;;;;7.43;49.95;100220.31;5048432;28;20033;-42
2023/02/21 03:22:21;;;;;;;3.50;1.60;;;;;;;7.42;50.83;100212.56;5048207;28;20037;-42
2023/02/21 03:24:49;;;;;;;3.53;1.73;;;;;;;7.21;50.00;100178.94;5046617;28;20421;-42
2023/02/21 03:27:18;;;;;;;4.80;1.55;;;;;;;7.36;50.07;100197.44;5048099;28;20025;-41
2023/02/21 03:29:44;;;;;;;4.03;1.83;;;;;;;7.38;49.47;100200.72;5048243;28;20039;-41
2023/02/21 03:34:41;;;;;;;3.30;1.60;;;;;;;7.48;47.72;100205.63;5048322;28;20521;-39
2023/02/21 03:37:09;;;;;;;3.67;1.55;;;;;;;7.52;48.19;100218.34;5047858;28;20029;-42
2023/02/21 03:39:35;;;;;;;3.75;1.67;;;;;;;7.53;48.15;100212.00;5047496;28;20115;-40
2023/02/21 03:42:01;;;;;;;3.50;1.38;;;;;;;7.39;48.21;100191.72;5047648;28;20628;-41
2023/02/21 03:44:26;;;;;;;4.30;1.83;;;;;;;7.57;48.37;100213.25;5047875;28;20036;-41
2023/02/21 03:46:52;;;;;;;3.00;1.42;;;;;;;7.54;47.20;100205.69;5048085;28;20029;-42
2023/02/21 03:49:18;;;;;;;3.33;1.40;;;;;;;7.50;48.18;100212.41;5047448;28;20107;-39
2023/02/21 03:51:43;;;;;;;2.72;1.20;;;;;;;7.63;46.91;100230.25;5047766;28;20251;-39
2023/02/21 03:54:08;;;;;;;2.28;1.17;;;;;;;7.70;46.38;100222.31;5047545;28;20028;-40
2023/02/21 03:56:34;;;;;;;3.70;1.40;;;;;;;7.47;47.58;100225.25;5047894;28;20119;-40
2023/02/21 03:58:59;;;;;;;2.95;1.20;;;;;;;7.67;48.35;100230.69;5047759;28;20103;-42
2023/02/21 04:01:25;;;;;;;3.17;1.38;;;;;;;7.60;48.18;100231.47;5047528;28;20028;-42
2023/02/21 04:03:50;;;;;;;2.75;1.35;;;;;;;7.59;48.17;100219.19;5047664;28;20484;-41
2023/02/21 04:06:16;;;;;;;2.60;1.20;;;;;;;7.56;47.57;100219.59;5047562;28;20082;-42
2023/02/21 04:08:42;;;;;;;3.22;1.65;;;;;;;7.52;48.55;100214.84;5047802;28;20100;-41
2023/02/21 04:11:07;;;;;;;2.53;1.15;;;;;;;7.73;48.49;100204.16;5047621;28;20501;-42
2023/02/21 04:13:33;;;;;;;5.57;1.50;;;;;;;7.70;48.66;100201.88;5047408;28;20560;-42
2023/02/21 04:15:58;;;;;;;5.07;1.58;;;;;;;7.94;48.36;100221.00;5047614;28;20075;-42
2023/02/21 04:18:23;;;;;;;8.23;2.55;;;;;;;7.93;48.57;100225.50;5047665;28;20078;-39
2023/02/21 04:20:49;;;;;;;4.55;1.80;;;;;;;6.97;50.22;100227.94;5044418;28;20755;-41
2023/02/21 04:23:18;;;;;;;5.03;1.85;;;;;;;6.53;51.94;100242.19;5040063;28;20633;-42
2023/02/21 04:25:44;;;;;;;17.85;4.97;;;;;;;6.12;52.54;100225.03;5027441;28;20079;-41
2023/02/21 04:28:09;;;;;;;8.15;2.28;;;;;;;6.00;53.83;100219.41;5027846;28;20021;-42
2023/02/21 04:30:38;;;;;;;22.75;8.13;;;;;;;6.09;52.40;100233.38;5027532;28;20056;-38
2023/02/21 04:33:03;;;;;;;7.10;3.63;;;;;;;5.97;53.16;100227.72;5027482;28;20026;-42
2023/02/21 04:35:29;;;;;;;93.93;36.95;;;;;;;5.55;54.87;100221.22;5027284;28;20481;-42
2023/02/21 04:37:56;;;;;;;29.48;10.88;;;;;;;5.97;53.71;100234.84;5027439;28;20064;-42
2023/02/21 04:40:22;;;;;;;91.90;44.07;;;;;;;5.99;54.24;100228.34;5031087;28;20083;-40
2023/02/21 04:42:47;;;;;;;67.93;35.25;;;;;;;5.99;54.14;100216.97;5031895;28;20041;-41
2023/02/21 04:45:13;;;;;;;56.40;29.05;;;;;;;6.00;53.15;100224.69;5031914;28;20030;-42
2023/02/21 04:47:38;;;;;;;45.28;22.58;;;;;;;6.20;53.34;100224.13;5031155;28;20501;-41
2023/02/21 04:50:04;;;;;;;25.98;12.23;;;;;;;6.25;52.22;100229.66;5031163;28;20033;-41
2023/02/21 04:52:32;;;;;;;13.60;7.18;;;;;;;6.35;52.79;100235.47;5031109;28;20033;-41
2023/02/21 04:54:57;;;;;;;14.07;6.72;;;;;;;6.41;53.32;100253.28;5029789;28;20032;-41
2023/02/21 04:57:23;;;;;;;11.88;4.57;;;;;;;6.36;52.99;100249.56;5031048;28;20037;-39
2023/02/21 04:59:54;;;;;;;8.77;3.70;;;;;;;6.42;52.70;100254.94;5029731;28;20803;-42
2023/02/21 05:02:20;;;;;;;8.70;3.28;;;;;;;6.47;54.67;100248.25;5034902;28;20071;-39
2023/02/21 05:04:47;;;;;;;7.85;3.25;;;;;;;6.29;53.97;100235.41;5042309;28;20136;-41
2023/02/21 05:07:13;;;;;;;8.07;3.60;;;;;;;6.33;53.87;100236.69;5050765;28;20033;-42
2023/02/21 05:09:41;;;;;;;9.18;3.80;;;;;;;6.31;54.63;100247.47;5048011;28;20087;-38
2023/02/21 05:12:10;;;;;;;8.98;4.30;;;;;;;6.24;54.31;100246.56;5047953;28;20032;-39
2023/02/21 05:14:37;;;;;;;12.95;6.03;;;;;;;5.69;55.77;100238.09;5031838;28;20494;-42
2023/02/21 05:17:02;;;;;;;25.95;8.68;;;;;;;5.43;57.44;100230.59;5030796;28;20052;-41
2023/02/21 05:19:30;;;;;;;35.78;15.18;;;;;;;5.62;56.66;100259.19;5030413;28;20060;-42
2023/02/21 05:21:58;;;;;;;32.23;16.37;;;;;;;5.73;55.45;100254.44;5030892;28;20029;-41
2023/02/21 05:24:26;;;;;;;23.17;10.25;;;;;;;5.56;56.76;100244.03;5030808;28;20037;-38
2023/02/21 05:26:51;;;;;;;30.40;12.45;;;;;;;5.56;56.67;100241.41;5030541;28;20116;-40
2023/02/21 05:29:18;;;;;;;30.23;13.85;;;;;;;5.90;56.53;100249.78;5030356;28;20051;-42
2023/02/21 05:31:46;;;;;;;65.13;29.05;;;;;;;5.64;57.24;100262.47;5030326;28;20128;-39
2023/02/21 05:34:12;;;;;;;25.08;13.48;;;;;;;5.24;55.98;100240.72;5030537;28;20040;-39
2023/02/21 05:36:38;;;;;;;14.82;7.70;;;;;;;4.95;56.54;100236.19;5030413;28;20679;-42
2023/02/21 05:39:05;;;;;;;12.40;6.20;;;;;;;4.95;57.32;100261.78;5030544;28;20034;-43
2023/02/21 05:41:31;;;;;;;30.57;13.17;;;;;;;5.20;57.03;100255.28;5030265;28;20076;-40
2023/02/21 05:43:56;;;;;;;749.33;351.23;;;;;;;5.09;56.79;100253.09;5030234;28;20772;-42
2023/02/21 05:46:27;;;;;;;490.52;202.80;;;;;;;5.13;58.09;100235.88;5030033;28;20024;-39
2023/02/21 05:48:54;;;;;;;118.30;44.80;;;;;;;5.03;59.11;100245.88;5030074;28;20037;-39
2023/02/21 05:51:20;;;;;;;52.15;22.52;;;;;;;5.14;58.51;100213.69;5029104;28;20029;-40
2023/02/21 05:53:46;;;;;;;53.22;21.55;;;;;;;5.60;57.64;100232.09;5029979;28;20036;-40
2023/02/21 05:56:12;;;;;;;49.65;27.42;;;;;;;5.94;57.52;100257.16;5030157;28;20017;-42
2023/02/21 05:58:38;;;;;;;67.75;33.45;;;;;;;5.86;56.56;100254.63;5030006;28;20041;-40
2023/02/21 06:01:05;;;;;;;63.40;33.47;;;;;;;5.85;55.41;100237.09;5028407;28;20026;-41
2023/02/21 06:03:30;;;;;;;71.43;36.50;;;;;;;6.00;56.21;100264.41;5039327;28;20043;-38
2023/02/21 06:05:55;;;;;;;116.78;57.10;;;;;;;5.95;56.88;100264.16;5029823;28;20029;-41
2023/02/21 06:08:21;;;;;;;65.68;32.38;;;;;;;5.63;56.43;100244.94;5037510;28;20481;-42
2023/02/21 06:10:46;;;;;;;35.28;17.48;;;;;;;6.09;54.57;100259.00;5033470;28;20025;-41
2023/02/21 06:13:12;;;;;;;56.80;21.75;;;;;;;5.84;57.04;100270.69;5028253;28;20034;-38
2023/02/21 06:15:37;;;;;;;27.70;13.27;;;;;;;5.76;56.29;100254.91;5029244;28;20087;-41
2023/02/21 06:18:02;;;;;;;23.38;11.98;;;;;;;5.79;57.30;100266.94;5029785;28;20029;-41
2023/02/21 06:20:28;;;;;;;23.92;12.07;;;;;;;5.79;56.41;100265.13;5029577;28;20103;-38
2023/02/21 06:22:53;;;;;;;23.30;12.02;;;;;;;5.77;56.12;100274.25;5029753;28;20087;-41
2023/02/21 06:25:19;;;;;;;28.67;12.55;;;;;;;5.77;56.37;100266.31;5029358;28;20025;-41
2023/02/21 06:27:44;;;;;;;25.20;12.27;;;;;;;5.86;56.09;100265.19;5029624;28;20033;-42
2023/02/21 06:30:10;;;;;;;22.85;11.88;;;;;;;5.99;55.24;100262.78;5031950;28;20026;-41
2023/02/21 06:32:36;;;;;;;28.27;12.60;;;;;;;6.01;54.70;100257.31;5038163;28;20779;-40
2023/02/21 06:35:02;;;;;;;49.08;19.08;;;;;;;5.94;54.48;100237.81;5029656;28;20036;-42
2023/02/21 06:37:28;;;;;;;31.67;15.77;;;;;;;6.09;54.17;100243.97;5029007;28;20497;-41
2023/02/21 06:39:53;;;;;;;58.45;25.58;;;;;;;6.46;53.63;100265.13;5037345;28;20069;-40
2023/02/21 06:42:20;;;;;;;39.42;17.63;;;;;;;6.69;53.51;100254.41;5032172;28;20583;-42
2023/02/21 06:44:47;;;;;;;21.42;10.52;;;;;;;6.82;53.29;100254.50;5029062;28;20032;-42
2023/02/21 06:47:12;;;;;;;13.27;6.22;;;;;;;7.05;52.89;100249.03;5029250;28;20036;-42
2023/02/21 06:49:38;;;;;;;14.00;7.30;;;;;;;7.21;53.44;100248.75;5029106;28;20037;-40
2023/02/21 06:52:07;;;;;;;10.02;5.10;;;;;;;7.59;52.73;100263.50;5027714;28;20724;-43
2023/02/21 06:54:32;;;;;;;16.30;10.20;;;;;;;7.55;53.70;100254.28;5028880;28;20707;-42
2023/02/21 06:57:00;;;;;;;32.97;16.27;;;;;;;7.41;54.86;100240.09;5028954;28;20033;-42
2023/02/21 06:59:26;;;;;;;37.28;17.98;;;;;;;7.49;54.96;100255.06;5028364;28;20061;-42
2023/02/21 07:01:55;;;;;;;34.17;17.05;;;;;;;7.25;56.85;100254.47;5028428;28;20036;-43
2023/02/21 07:04:21;;;;;;;10.57;5.18;;;;;;;7.09;56.42;100247.63;5028601;28;20065;-41
2023/02/21 07:06:46;;;;;;;13.52;4.97;;;;;;;7.49;55.50;100249.75;5039886;28;20065;-42
2023/02/21 07:09:12;;;;;;;11.35;6.93;;;;;;;7.76;54.26;100240.09;5028511;28;20029;-42
2023/02/21 07:11:37;;;;;;;9.50;5.38;;;;;;;8.12;51.97;100228.44;5028452;28;20474;-40
2023/02/21 07:14:03;;;;;;;12.35;8.00;;;;;;;8.59;49.89;100230.22;5034238;28;20033;-40
2023/02/21 07:16:29;;;;;;;10.90;7.95;;;;;;;9.04;49.69;100237.66;5033541;28;20107;-41
2023/02/21 07:18:54;;;;;;;13.57;7.13;;;;;;;9.62;48.93;100243.13;5028683;28;20061;-40
2023/02/21 07:21:20;;;;;;;13.73;9.35;;;;;;;9.86;47.82;100238.94;5028169;28;20025;-42
2023/02/21 07:23:47;;;;;;;22.75;18.50;;;;;;;10.27;46.96;100242.28;5027229;28;20021;-41
2023/02/21 07:26:13;;;;;;;9.25;5.25;;;;;;;10.52;45.89;100246.91;5040438;28;20405;-39
2023/02/21 07:28:39;;;;;;;9.60;4.20;;;;;;;10.71;46.01;100232.63;5041156;28;20034;-42
2023/02/21 07:31:05;;;;;;;8.52;3.85;;;;;;;11.03;45.26;100228.09;5030470;28;20026;-41
2023/02/21 07:33:30;;;;;;;8.13;4.07;;;;;;;11.10;45.23;100212.03;5027844;28;20469;-40
2023/02/21 07:35:56;;;;;;;10.35;3.47;;;;;;;11.35;44.26;100222.66;5027822;28;20715;-42
2023/02/21 07:38:23;;;;;;;8.77;3.03;;;;;;;11.51;44.71;100237.31;5028004;28;20490;-41
2023/02/21 07:40:49;;;;;;;8.93;3.30;;;;;;;11.40;45.09;100212.16;5029571;28;20787;-42
2023/02/21 07:43:14;;;;;;;4.88;2.80;;;;;;;11.44;45.00;100225.88;5036567;28;20060;-40
2023/02/21 07:45:40;;;;;;;15.48;7.03;;;;;;;11.63;45.31;100224.84;5027091;28;20025;-41
2023/02/21 07:48:05;;;;;;;17.50;8.27;;;;;;;11.86;45.37;100208.16;5047463;28;20029;-36
2023/02/21 07:50:31;;;;;;;7.03;2.70;;;;;;;12.16;43.73;100230.66;5047627;28;20034;-41
2023/02/21 07:52:58;;;;;;;8.15;4.05;;;;;;;12.36;43.90;100225.03;5047632;28;20037;-37
2023/02/21 07:55:24;;;;;;;12.67;7.07;;;;;;;12.50;44.74;100186.38;5047506;28;20041;-42
2023/02/21 07:57:52;;;;;;;6.70;2.38;;;;;;;13.02;43.16;100204.50;5047358;28;20543;-42
2023/02/21 08:00:17;;;;;;;10.63;3.05;;;;;;;13.26;42.88;100178.56;5047710;28;20029;-40
2023/02/21 08:02:49;;;;;;;5.05;2.10;;;;;;;13.51;41.08;100193.59;5042818;28;20455;-40
2023/02/21 08:05:16;;;;;;;6.25;2.42;;;;;;;13.80;40.21;100205.19;5038718;28;20037;-43
2023/02/21 08:07:42;;;;;;;7.07;3.13;;;;;;;14.00;39.55;100189.50;5035631;28;20040;-42
2023/02/21 08:10:08;;;;;;;4.65;2.10;;;;;;;14.24;37.97;100205.50;5027205;28;20026;-42
2023/02/21 08:12:34;;;;;;;6.55;2.58;;;;;;;14.38;39.78;100206.03;5027560;28;20885;-41
2023/02/21 08:14:59;;;;;;;6.65;2.55;;;;;;;14.65;38.52;100200.94;5026919;28;20034;-40
2023/02/21 08:17:28;;;;;;;4.95;2.17;;;;;;;14.83;38.30;100214.13;5027419;28;20740;-38
2023/02/21 08:19:53;;;;;;;6.85;2.33;;;;;;;15.04;36.71;100203.72;5027305;28;20033;-42
2023/02/21 08:22:18;;;;;;;6.05;1.83;;;;;;;15.20;37.58;100202.88;5027645;28;20037;-35
2023/02/21 08:24:45;;;;;;;5.97;2.22;;;;;;;15.42;36.21;100204.78;5027209;28;20051;-41
2023/02/21 08:27:10;;;;;;;4.07;1.90;;;;;;;15.38;35.79;100160.66;5027424;28;20706;-41
2023/02/21 08:29:36;;;;;;;4.82;1.95;;;;;;;15.93;35.25;100189.34;5027230;28;20029;-41
2023/02/21 08:32:01;;;;;;;7.28;3.45;;;;;;;15.89;34.67;100198.16;5027274;28;20025;-40
2023/02/21 08:34:28;;;;;;;9.27;3.90;;;;;;;16.25;33.89;100181.34;5027267;28;20505;-42
2023/02/21 08:36:56;;;;;;;5.45;1.95;;;;;;;16.44;32.93;100181.81;5029254;28;20033;-43
2023/02/21 08:39:22;;;;;;;3.50;1.50;;;;;;;16.40;33.49;100180.69;5043572;28;20043;-39
2023/02/21 08:41:48;;;;;;;4.40;1.75;;;;;;;16.79;32.49;100185.06;5046226;28;20049;-41
2023/02/21 08:44:16;;;;;;;8.48;1.70;;;;;;;16.97;32.73;100175.81;5047243;28;20025;-42
2023/02/21 08:46:42;;;;;;;3.58;1.58;;;;;;;17.33;31.95;100167.97;5047471;28;20068;-41
2023/02/21 08:49:08;;;;;;;4.93;1.45;;;;;;;17.27;31.71;100173.31;5046692;28;20048;-43
2023/02/21 08:51:34;;;;;;;4.28;1.63;;;;;;;17.25;30.85;100186.25;5046689;28;20035;-41
2023/02/21 08:54:00;;;;;;;5.65;2.42;;;;;;;17.18;30.85;100164.13;5046620;28;20029;-43
2023/02/21 08:56:27;;;;;;;2.25;1.48;;;;;;;16.77;30.85;100163.78;5046999;28;20068;-41
2023/02/21 08:58:55;;;;;;;6.15;2.38;;;;;;;16.71;31.25;100156.72;5046730;28;20820;-39
2023/02/21 09:01:23;;;;;;;4.50;1.40;;;;;;;17.03;31.32;100145.16;5026741;28;20079;-40
2023/02/21 09:03:49;;;;;;;4.65;1.90;;;;;;;17.47;31.54;100152.94;5017992;28;20030;-44
2023/02/21 09:06:15;;;;;;;5.55;1.75;;;;;;;17.78;30.15;100158.47;5030761;28;20044;-42
2023/02/21 09:08:40;;;;;;;4.10;1.35;;;;;;;17.86;30.50;100152.59;5037638;28;20033;-43
2023/02/21 09:11:07;;;;;;;5.82;1.90;;;;;;;18.14;30.28;100145.09;5026947;28;20421;-42
2023/02/21 09:13:33;;;;;;;5.22;1.60;;;;;;;18.40;29.80;100151.34;5026753;28;20109;-38
2023/02/21 09:16:00;;;;;;;4.05;1.55;;;;;;;18.58;29.75;100145.41;5026479;28;20640;-42
2023/02/21 09:18:27;;;;;;;3.93;1.60;;;;;;;18.73;29.11;100141.88;5026731;28;20036;-44
2023/02/21 09:20:56;;;;;;;8.32;2.03;;;;;;;18.04;28.94;100153.97;5026445;28;20026;-44
2023/02/21 09:23:23;;;;;;;6.15;2.35;;;;;;;17.97;29.61;100145.34;5026550;28;20041;-43
2023/02/21 09:25:49;;;;;;;4.28;1.80;;;;;;;18.30;29.59;100144.03;5029284;28;20087;-43
2023/02/21 09:28:15;;;;;;;3.83;1.90;;;;;;;18.51;29.86;100122.44;5036932;28;20493;-41
2023/02/21 09:30:41;;;;;;;5.53;1.90;;;;;;;18.62;28.77;100141.09;5034166;28;20409;-43
2023/02/21 09:33:07;;;;;;;4.53;2.17;;;;;;;18.47;29.16;100128.41;5030073;28;20033;-43
2023/02/21 09:35:32;;;;;;;4.95;2.35;;;;;;;18.56;29.90;100147.56;5029775;28;20031;-44
2023/02/21 09:37:59;;;;;;;4.53;1.55;;;;;;;18.46;29.35;100126.78;5030219;28;20037;-44
2023/02/21 09:40:54;;;;;;;3.55;1.73;;;;;;;18.89;28.96;100121.09;5029839;28;20395;-44
2023/02/21 09:43:32;;;;;;;2.90;1.50;;;;;;;18.94;28.97;100122.97;5029719;28;20033;-43
2023/02/21 09:46:01;;;;;;;5.45;2.35;;;;;;;19.04;29.26;100114.84;5029791;28;20029;-43
2023/02/21 09:48:28;;;;;;;3.63;1.80;;;;;;;19.24;29.04;100098.56;5029980;28;20032;-44
2023/02/21 09:50:58;;;;;;;3.35;1.60;;;;;;;19.60;28.39;100105.75;5035363;28;20033;-44
2023/02/21 09:53:27;;;;;;;3.20;1.65;;;;;;;19.30;28.14;100096.66;5034845;28;20021;-42
2023/02/21 09:55:59;;;;;;;4.10;1.60;;;;;;;19.80;28.10;100088.66;5032037;28;20029;-42
2023/02/21 09:58:29;;;;;;;5.38;1.80;;;;;;;20.27;27.30;100103.50;5042810;28;20486;-43
2023/02/21 10:01:00;;;;;;;5.80;1.80;;;;;;;19.97;27.52;100097.19;5039477;28;20108;-42
2023/02/21 10:03:48;;;;;;;17.55;3.28;;;;;;;20.27;27.19;100087.25;5036197;28;20420;-43
2023/02/21 10:06:31;;;;;;;3.42;1.67;;;;;;;19.94;27.23;100105.88;5029650;28;20033;-41
2023/02/21 10:09:04;;;;;;;4.45;1.88;;;;;;;19.74;27.58;100095.16;5037647;28;20039;-40
2023/02/21 10:11:44;;;;;;;7.53;2.50;;;;;;;20.18;27.02;100088.91;5049124;28;20424;-38
2023/02/21 10:14:43;;;;;;;5.65;1.95;;;;;;;19.97;27.49;100096.38;5049578;28;20060;-41
2023/02/21 10:17:41;;;;;;;3.85;1.60;;;;;;;19.61;28.06;100075.69;5048609;28;20033;-41
2023/02/21 10:20:14;;;;;;;5.25;2.22;;;;;;;19.34;27.51;100065.28;5029546;28;20195;-41
2023/02/21 10:22:46;;;;;;;5.32;2.33;;;;;;;19.71;27.17;100052.44;5029124;28;20429;-38
2023/02/21 10:25:41;;;;;;;5.55;2.10;;;;;;;20.50;26.80;100042.34;5029304;28;20497;-38
2023/02/21 10:28:12;;;;;;;7.40;2.85;;;;;;;20.96;26.09;100044.59;5028829;28;20211;-38
2023/02/21 10:30:39;;;;;;;5.22;2.10;;;;;;;20.96;25.27;100043.78;5029415;28;20025;-40
2023/02/21 10:33:06;;;;;;;5.20;1.90;;;;;;;20.71;25.42;100024.00;5029198;28;20100;-37
2023/02/21 10:35:38;;;;;;;5.70;2.00;;;;;;;21.14;25.13;100018.63;5029033;28;20316;-40
2023/02/21 10:38:08;;;;;;;5.22;1.92;;;;;;;20.90;25.00;100004.28;5027995;28;20020;-41
2023/02/21 10:40:45;;;;;;;3.63;1.52;;;;;;;21.43;24.98;100020.44;5028886;28;20053;-40
2023/02/21 10:43:25;;;;;;;3.67;1.58;;;;;;;21.00;24.96;100006.88;5029050;28;20513;-35
2023/02/21 10:46:28;;;;;;;4.50;1.40;;;;;;;21.48;25.36;100008.75;5028931;28;20456;-36
2023/02/21 10:49:08;;;;;;;7.15;2.47;;;;;;;22.06;24.32;100014.59;5028570;28;20528;-39
2023/02/21 10:51:34;;;;;;;5.55;2.22;;;;;;;21.32;24.82;99989.13;5028542;28;20067;-40
2023/02/21 10:54:36;;;;;;;8.98;2.30;;;;;;;21.77;25.07;99986.88;5028664;28;20409;-39
2023/02/21 10:57:05;;;;;;;5.07;1.83;;;;;;;21.81;24.50;99968.88;5025857;28;20116;-40
2023/02/21 10:59:34;;;;;;;3.30;1.30;;;;;;;22.56;23.80;99964.34;5027732;28;20135;-39
2023/02/21 11:02:02;;;;;;;3.53;1.50;;;;;;;22.16;23.50;99988.41;5028469;28;20025;-41
2023/02/21 11:04:33;;;;;;;5.85;1.60;;;;;;;21.79;23.21;99971.09;5028373;28;20067;-37
2023/02/21 11:07:04;;;;;;;6.43;1.90;;;;;;;21.62;23.58;99969.72;5028454;28;20497;-38
2023/02/21 11:09:31;;;;;;;7.95;3.60;;;;;;;21.65;24.49;99946.59;5028168;28;20554;-37
2023/02/21 11:12:02;;;;;;;7.10;3.28;;;;;;;22.03;24.44;99951.97;5028535;28;20026;-40
2023/02/21 11:14:29;;;;;;;9.75;4.03;;;;;;;22.21;23.45;99945.66;5028581;28;20807;-41
2023/02/21 11:17:19;;;;;;;5.47;2.30;;;;;;;22.40;22.64;99945.59;5028209;28;20052;-41
2023/02/21 11:19:53;;;;;;;5.15;1.90;;;;;;;22.27;22.74;99958.06;5028251;28;20075;-41
2023/02/21 11:22:32;;;;;;;8.13;3.00;;;;;;;22.29;22.61;99932.50;5028170;28;20033;-41
2023/02/21 11:25:27;;;;;;;7.55;3.10;;;;;;;22.15;22.54;99927.03;5028143;28;20034;-45
2023/02/21 11:28:02;;;;;;;7.22;3.50;;;;;;;22.04;22.32;99921.78;5028020;28;20025;-41
2023/02/21 11:30:30;;;;;;;6.53;2.40;;;;;;;22.18;23.58;99893.84;5027615;28;20405;-36
2023/02/21 11:32:59;;;;;;;8.45;3.15;;;;;;;22.19;22.57;99917.16;5028009;28;20029;-38
2023/02/21 11:35:32;;;;;;;6.85;2.50;;;;;;;22.08;22.58;99906.50;5027696;28;20065;-41
2023/02/21 11:38:28;;;;;;;6.65;3.50;;;;;;;22.91;22.87;99905.72;5027975;28;20520;-38
2023/02/21 11:40:53;;;;;;;6.47;2.65;;;;;;;23.45;22.62;99903.97;5026368;28;20064;-36
2023/02/21 11:43:21;;;;;;;7.05;3.03;;;;;;;22.29;21.91;99906.13;5027342;28;20033;-36
2023/02/21 11:46:11;;;;;;;7.45;3.05;;;;;;;22.81;22.35;99903.22;5026203;28;20516;-39
2023/02/21 11:48:49;;;;;;;3.72;2.00;;;;;;;23.41;20.97;99885.84;5026549;28;20033;-40
2023/02/21 11:51:23;;;;;;;2.20;1.20;;;;;;;23.23;21.33;99883.00;5027402;28;20029;-37
2023/02/21 11:53:49;;;;;;;3.70;1.55;;;;;;;23.26;21.86;99878.84;5027658;28;20033;-40
2023/02/21 11:56:32;;;;;;;3.28;1.20;;;;;;;23.52;21.60;99870.88;5027614;28;20040;-39
2023/02/21 11:59:18;;;;;;;4.20;1.55;;;;;;;23.77;21.57;99874.09;5026213;28;20075;-40
2023/02/21 12:01:49;;;;;;;3.63;1.70;;;;;;;23.57;22.11;99869.94;5027624;28;20053;-41
2023/02/21 12:04:28;;;;;;;4.55;2.13;;;;;;;23.88;21.19;99872.72;5027560;28;20087;-41
2023/02/21 12:07:04;;;;;;;2.65;1.65;;;;;;;24.11;20.91;99867.22;5026165;28;20390;-37
2023/02/21 12:09:51;;;;;;;2.10;1.27;;;;;;;23.99;20.47;99856.91;5027270;28;20405;-39
2023/02/21 12:12:51;;;;;;;4.97;1.40;;;;;;;23.96;20.53;99858.34;5027581;28;20045;-42
2023/02/21 12:15:34;;;;;;;1.75;1.00;;;;;;;23.60;19.84;99810.25;5026818;28;20049;-38
2023/02/21 12:18:41;;;;;;;2.53;1.17;;;;;;;23.75;20.54;99824.56;5027258;28;20041;-38
2023/02/21 12:21:09;;;;;;;3.13;1.00;;;;;;;23.54;20.05;99836.00;5026183;28;20501;-38
2023/02/21 12:23:48;;;;;;;3.08;1.10;;;;;;;23.84;20.08;99828.16;5027416;28;20481;-34
2023/02/21 12:26:32;;;;;;;2.30;1.10;;;;;;;24.11;20.21;99816.28;5027185;28;20033;-39
2023/02/21 12:29:35;;;;;;;5.13;2.10;;;;;;;24.53;19.67;99826.81;5027279;28;20025;-37
2023/02/21 12:32:40;;;;;;;3.03;1.00;;;;;;;24.26;18.95;99802.19;5027302;28;20056;-39
2023/02/21 12:35:32;;;;;;;2.70;1.20;;;;;;;24.04;19.27;99800.38;5027381;28;20025;-38
2023/02/21 12:38:15;;;;;;;2.67;0.95;;;;;;;24.15;18.68;99800.06;5027259;28;20038;-41
2023/02/21 12:41:01;;;;;;;2.85;1.08;;;;;;;24.05;18.91;99788.38;5027049;28;20058;-39
2023/02/21 12:43:26;;;;;;;9.10;3.83;;;;;;;24.67;19.93;99802.94;5026926;28;20030;-39
2023/02/21 12:46:03;;;;;;;1.55;0.95;;;;;;;24.45;19.19;99798.38;5027114;28;20037;-36
2023/02/21 12:48:42;;;;;;;3.65;1.10;;;;;;;24.03;19.07;99787.88;5027018;28;20112;-38
2023/02/21 12:51:14;;;;;;;2.90;0.90;;;;;;;24.27;18.88;99784.75;5027002;28;20516;-38
2023/02/21 12:54:02;;;;;;;2.83;1.58;;;;;;;24.27;18.47;99795.66;5027086;28;20030;-39
2023/02/21 12:56:35;;;;;;;3.28;1.35;;;;;;;24.34;18.70;99799.81;5025125;28;20048;-40
2023/02/21 12:59:03;;;;;;;4.60;1.50;;;;;;;24.51;19.30;99797.16;5026965;28;20532;-40
2023/02/21 13:01:42;;;;;;;2.63;1.25;;;;;;;24.42;18.68;99785.41;5030463;28;20043;-37
2023/02/21 13:04:45;;;;;;;9.10;3.00;;;;;;;24.76;18.79;99792.81;5030785;28;20040;-40
2023/02/21 13:07:42;;;;;;;13.98;7.00;;;;;;;25.40;18.09;99794.09;5030694;28;20119;-39
2023/02/21 13:10:07;;;;;;;17.67;9.52;;;;;;;25.61;17.45;99777.81;5029034;28;20030;-38
2023/02/21 13:12:47;;;;;;;12.80;5.95;;;;;;;25.62;17.23;99796.59;5029530;28;20056;-37
2023/02/21 13:15:21;;;;;;;11.20;3.83;;;;;;;25.77;17.03;99780.81;5030791;28;20021;-39
2023/02/21 13:18:15;;;;;;;7.18;3.00;;;;;;;26.34;16.27;99774.91;5030558;28;20038;-40
2023/02/21 13:20:46;;;;;;;6.50;2.15;;;;;;;25.53;16.90;99775.91;5030416;28;20083;-40
2023/02/21 13:23:52;;;;;;;5.35;2.35;;;;;;;26.35;16.72;99773.75;5030229;28;20038;-40
2023/02/21 13:26:56;;;;;;;10.40;5.15;;;;;;;26.28;15.97;99773.50;5030292;28;20025;-40
2023/02/21 13:29:29;;;;;;;9.18;3.10;;;;;;;26.80;15.88;99767.66;5030183;28;20561;-37
2023/02/21 13:32:18;;;;;;;10.55;3.63;;;;;;;26.54;16.14;99775.22;5030418;28;20034;-37
2023/02/21 13:34:52;;;;;;;7.90;2.47;;;;;;;26.82;15.22;99765.38;5030147;28;20040;-38
2023/02/21 13:37:25;;;;;;;6.82;1.83;;;;;;;26.31;16.16;99756.41;5029709;28;20033;-36
2023/02/21 13:40:06;;;;;;;8.98;2.67;;;;;;;26.62;16.11;99744.31;5030206;28;20038;-37
2023/02/21 13:42:34;;;;;;;6.32;2.08;;;;;;;27.42;15.71;99765.13;5032821;28;20562;-40
2023/02/21 13:45:11;;;;;;;5.65;1.30;;;;;;;27.04;15.51;99760.69;5046615;28;20029;-37
2023/02/21 13:47:52;;;;;;;3.45;1.60;;;;;;;27.20;15.09;99753.44;5049429;28;20029;-39
2023/02/21 13:50:37;;;;;;;6.10;2.30;;;;;;;27.24;15.08;99759.88;5048154;28;20047;-38
2023/02/21 13:53:15;;;;;;;11.10;2.88;;;;;;;26.96;15.30;99753.38;5048784;28;20043;-37
2023/02/21 13:56:06;;;;;;;9.75;3.90;;;;;;;26.77;15.14;99768.34;5049777;28;20041;-39
2023/02/21 13:58:48;;;;;;;6.65;2.78;;;;;;;26.56;15.36;99743.72;5049658;28;20104;-37
2023/02/21 14:01:47;;;;;;;7.30;2.80;;;;;;;27.12;15.34;99759.00;5049437;28;20066;-40
2023/02/21 14:04:54;;;;;;;7.20;2.70;;;;;;;27.27;14.87;99754.84;5049514;28;20515;-38
2023/02/21 14:07:40;;;;;;;10.50;3.55;;;;;;;27.61;15.09;99748.97;5039077;28;20037;-40